createdAt,value
2018-03-31T00:00:02.485Z,0
2018-03-31T00:01:02.741Z,0
2018-03-31T00:02:02.758Z,0
2018-03-31T00:03:02.258Z,0
2018-03-31T00:04:02.794Z,0
2018-03-31T00:05:02.809Z,0
2018-03-31T00:06:17.490Z,0
2018-03-31T00:07:02.841Z,0
2018-03-31T00:08:32.162Z,0
2018-03-31T00:09:02.347Z,0
2018-03-31T00:10:17.275Z,0
2018-03-31T00:11:02.637Z,0
2018-03-31T00:12:02.965Z,0
2018-03-31T00:13:02.677Z,0
2018-03-31T00:14:02.945Z,0
2018-03-31T00:15:02.964Z,0
2018-03-31T00:16:02.988Z,0
2018-03-31T00:17:17.640Z,0
2018-03-31T00:18:03.011Z,0
2018-03-31T00:20:02.818Z,0
2018-03-31T00:21:03.042Z,0
2018-03-31T00:22:03.056Z,0
2018-03-31T00:23:02.814Z,0
2018-03-31T00:24:02.570Z,0
2018-03-31T00:25:02.842Z,0
2018-03-31T00:26:03.125Z,0
2018-03-31T00:27:03.134Z,0
2018-03-31T00:28:03.158Z,0
2018-03-31T00:29:02.910Z,0
2018-03-31T00:30:03.185Z,0
2018-03-31T00:31:17.854Z,0
2018-03-31T00:32:17.870Z,0
2018-03-31T00:33:03.223Z,0
2018-03-31T00:34:02.978Z,0
2018-03-31T00:36:02.750Z,0
2018-03-31T00:37:02.767Z,0
2018-03-31T00:38:03.039Z,0
2018-03-31T00:39:03.218Z,0
2018-03-31T00:40:32.646Z,0
2018-03-31T00:41:03.357Z,0
2018-03-31T00:42:17.756Z,0
2018-03-31T00:43:03.117Z,0
2018-03-31T00:44:03.135Z,0
2018-03-31T00:45:18.070Z,0
2018-03-31T00:46:03.421Z,0
2018-03-31T00:47:18.092Z,0
2018-03-31T00:48:03.191Z,0
2018-03-31T00:49:03.207Z,0
2018-03-31T00:50:03.481Z,0
2018-03-31T00:51:03.494Z,0
2018-03-31T00:52:03.251Z,0
2018-03-31T00:53:18.181Z,0
2018-03-31T00:54:03.275Z,0
2018-03-31T00:56:17.971Z,0
2018-03-31T00:57:03.320Z,0
2018-03-31T00:58:03.598Z,0
2018-03-31T00:59:03.351Z,0
2018-03-31T01:00:03.635Z,0
2018-03-31T01:01:03.380Z,0
2018-03-31T01:02:03.401Z,0
2018-03-31T01:03:03.679Z,0
2018-03-31T01:04:03.425Z,0
2018-03-31T01:05:18.361Z,0
2018-03-31T01:06:03.458Z,0
2018-03-31T01:07:03.728Z,0
2018-03-31T01:08:03.485Z,0
2018-03-31T01:09:03.758Z,0
2018-03-31T01:10:03.518Z,0
2018-03-31T01:11:03.892Z,0
2018-03-31T01:12:18.459Z,0
2018-03-31T01:13:03.828Z,0
2018-03-31T01:14:03.885Z,0
2018-03-31T01:15:03.853Z,0
2018-03-31T01:16:03.605Z,0
2018-03-31T01:17:03.876Z,0
2018-03-31T01:18:03.899Z,0
2018-03-31T01:19:03.648Z,0
2018-03-31T01:20:03.933Z,0
2018-03-31T01:21:03.676Z,0
2018-03-31T01:22:03.950Z,0
2018-03-31T01:23:18.362Z,0
2018-03-31T01:24:03.724Z,0
2018-03-31T01:25:03.476Z,0
2018-03-31T01:26:18.667Z,0
2018-03-31T01:27:03.505Z,0
2018-03-31T01:28:18.700Z,0
2018-03-31T01:29:03.801Z,0
2018-03-31T01:30:04.080Z,0
2018-03-31T01:31:04.098Z,0
2018-03-31T01:32:04.100Z,0
2018-03-31T01:33:04.113Z,0
2018-03-31T01:34:04.132Z,0
2018-03-31T01:35:03.888Z,0
2018-03-31T01:36:03.904Z,0
2018-03-31T01:37:03.702Z,0
2018-03-31T01:38:04.188Z,0
2018-03-31T01:39:18.860Z,0
2018-03-31T01:40:04.222Z,0
2018-03-31T01:41:03.979Z,0
2018-03-31T01:42:03.984Z,0
2018-03-31T01:43:18.916Z,0
2018-03-31T01:45:04.290Z,0
2018-03-31T01:46:04.311Z,0
2018-03-31T01:47:04.319Z,0
2018-03-31T01:48:04.073Z,0
2018-03-31T01:49:04.090Z,0
2018-03-31T01:50:04.397Z,0
2018-03-31T01:51:04.116Z,0
2018-03-31T01:52:04.138Z,0
2018-03-31T01:53:04.405Z,0
2018-03-31T01:54:04.158Z,0
2018-03-31T01:55:04.174Z,0
2018-03-31T01:56:04.188Z,0
2018-03-31T01:57:04.202Z,0
2018-03-31T01:58:04.216Z,0
2018-03-31T01:59:04.233Z,0
2018-03-31T02:00:04.287Z,0
2018-03-31T02:01:04.260Z,0
2018-03-31T02:02:04.535Z,0
2018-03-31T02:03:04.552Z,0
2018-03-31T02:04:04.303Z,0
2018-03-31T02:05:03.801Z,0
2018-03-31T02:06:19.249Z,0
2018-03-31T02:07:04.096Z,0
2018-03-31T02:08:04.630Z,0
2018-03-31T02:09:04.635Z,0
2018-03-31T02:10:04.656Z,0
2018-03-31T02:11:04.671Z,0
2018-03-31T02:12:04.418Z,0
2018-03-31T02:13:04.175Z,0
2018-03-31T02:14:04.447Z,0
2018-03-31T02:15:19.123Z,0
2018-03-31T02:16:04.739Z,0
2018-03-31T02:18:04.765Z,0
2018-03-31T02:19:04.522Z,0
2018-03-31T02:20:04.538Z,0
2018-03-31T02:21:19.467Z,0
2018-03-31T02:22:04.566Z,0
2018-03-31T02:23:04.839Z,0
2018-03-31T02:24:19.615Z,0
2018-03-31T02:25:04.607Z,0
2018-03-31T02:26:04.622Z,0
2018-03-31T02:27:04.637Z,0
2018-03-31T02:28:04.962Z,0
2018-03-31T02:29:04.663Z,0
2018-03-31T02:30:04.946Z,0
2018-03-31T02:31:19.713Z,0
2018-03-31T02:32:04.975Z,0
2018-03-31T02:33:19.663Z,0
2018-03-31T02:34:05.006Z,0
2018-03-31T02:35:04.775Z,0
2018-03-31T02:36:05.040Z,0
2018-03-31T02:37:04.787Z,0
2018-03-31T02:38:19.814Z,0
2018-03-31T02:39:04.816Z,0
2018-03-31T02:40:04.332Z,0
2018-03-31T02:41:05.125Z,0
2018-03-31T02:42:05.127Z,0
2018-03-31T02:43:19.786Z,0
2018-03-31T02:44:05.149Z,0
2018-03-31T02:45:05.157Z,0
2018-03-31T02:46:05.183Z,0
2018-03-31T02:47:19.846Z,0
2018-03-31T02:48:04.946Z,0
2018-03-31T02:49:05.229Z,0
2018-03-31T02:50:04.971Z,0
2018-03-31T02:51:05.251Z,0
2018-03-31T02:52:19.922Z,0
2018-03-31T02:53:05.316Z,0
2018-03-31T02:54:05.293Z,0
2018-03-31T02:55:05.043Z,0
2018-03-31T02:56:05.316Z,0
2018-03-31T02:57:05.335Z,0
2018-03-31T02:58:05.346Z,0
2018-03-31T02:59:05.364Z,0
2018-03-31T03:00:05.516Z,0
2018-03-31T03:01:05.401Z,0
2018-03-31T03:02:05.418Z,0
2018-03-31T03:03:34.750Z,0
2018-03-31T03:04:05.432Z,0
2018-03-31T03:05:05.196Z,0
2018-03-31T03:06:04.938Z,0
2018-03-31T03:07:05.208Z,0
2018-03-31T03:08:05.226Z,0
2018-03-31T03:09:05.499Z,0
2018-03-31T03:10:20.169Z,0
2018-03-31T03:11:20.180Z,0
2018-03-31T03:12:05.280Z,0
2018-03-31T03:13:05.552Z,0
2018-03-31T03:14:05.307Z,0
2018-03-31T03:15:05.324Z,0
2018-03-31T03:16:05.601Z,0
2018-03-31T03:17:05.362Z,0
2018-03-31T03:18:20.290Z,0
2018-03-31T03:19:05.642Z,0
2018-03-31T03:20:20.050Z,0
2018-03-31T03:21:05.668Z,0
2018-03-31T03:22:05.425Z,0
2018-03-31T03:23:05.699Z,0
2018-03-31T03:24:05.448Z,0
2018-03-31T03:25:05.478Z,0
2018-03-31T03:26:20.392Z,0
2018-03-31T03:27:05.248Z,0
2018-03-31T03:28:05.246Z,0
2018-03-31T03:29:05.520Z,0
2018-03-31T03:30:05.590Z,0
2018-03-31T03:31:05.557Z,0
2018-03-31T03:32:05.819Z,0
2018-03-31T03:33:05.576Z,0
2018-03-31T03:34:05.590Z,0
2018-03-31T03:35:05.865Z,0
2018-03-31T03:36:05.880Z,0
2018-03-31T03:37:05.893Z,0
2018-03-31T03:38:05.753Z,0
2018-03-31T03:39:05.671Z,0
2018-03-31T03:40:05.427Z,0
2018-03-31T03:41:05.961Z,0
2018-03-31T03:42:20.635Z,0
2018-03-31T03:43:05.981Z,0
2018-03-31T03:44:20.393Z,0
2018-03-31T03:45:05.750Z,0
2018-03-31T03:46:05.506Z,0
2018-03-31T03:47:05.520Z,0
2018-03-31T03:48:06.054Z,0
2018-03-31T03:49:05.802Z,0
2018-03-31T03:50:20.733Z,0
2018-03-31T03:51:20.488Z,0
2018-03-31T03:52:06.105Z,0
2018-03-31T03:53:05.859Z,0
2018-03-31T03:54:05.927Z,0
2018-03-31T03:55:06.152Z,0
2018-03-31T03:56:06.161Z,0
2018-03-31T03:57:05.918Z,0
2018-03-31T03:58:20.849Z,0
2018-03-31T03:59:05.944Z,0
2018-03-31T04:00:20.877Z,0
2018-03-31T04:01:06.278Z,0
2018-03-31T04:02:06.248Z,0
2018-03-31T04:04:06.016Z,0
2018-03-31T04:05:20.950Z,0
2018-03-31T04:06:20.440Z,0
2018-03-31T04:07:06.075Z,0
2018-03-31T04:08:06.076Z,0
2018-03-31T04:09:06.344Z,0
2018-03-31T04:10:06.358Z,0
2018-03-31T04:11:06.374Z,0
2018-03-31T04:12:06.384Z,0
2018-03-31T04:13:21.056Z,0
2018-03-31T04:14:06.416Z,0
2018-03-31T04:15:06.429Z,4
2018-03-31T04:16:05.933Z,4
2018-03-31T04:17:06.509Z,0
2018-03-31T04:18:06.211Z,0
2018-03-31T04:19:06.485Z,4
2018-03-31T04:20:06.241Z,4
2018-03-31T04:21:05.993Z,0
2018-03-31T04:22:20.926Z,4
2018-03-31T04:23:06.284Z,4
2018-03-31T04:24:21.560Z,4
2018-03-31T04:25:06.575Z,4
2018-03-31T04:26:06.064Z,4
2018-03-31T04:27:06.086Z,8
2018-03-31T04:28:06.372Z,8
2018-03-31T04:29:06.726Z,8
2018-03-31T04:30:21.303Z,16
2018-03-31T04:31:06.136Z,12
2018-03-31T04:32:06.671Z,16
2018-03-31T04:33:06.684Z,16
2018-03-31T04:34:06.208Z,20
2018-03-31T04:36:06.466Z,24
2018-03-31T04:37:06.743Z,28
2018-03-31T04:38:20.892Z,32
2018-03-31T04:39:06.521Z,36
2018-03-31T04:40:21.188Z,44
2018-03-31T04:42:06.812Z,52
2018-03-31T04:43:06.574Z,52
2018-03-31T04:44:06.595Z,56
2018-03-31T04:46:06.875Z,72
2018-03-31T04:47:06.621Z,80
2018-03-31T04:48:06.893Z,88
2018-03-31T04:49:06.922Z,96
2018-03-31T04:50:06.668Z,104
2018-03-31T04:51:06.420Z,112
2018-03-31T04:52:06.433Z,124
2018-03-31T04:53:36.282Z,136
2018-03-31T04:55:06.739Z,152
2018-03-31T04:56:21.777Z,160
2018-03-31T04:57:07.028Z,168
2018-03-31T04:59:07.059Z,192
2018-03-31T05:00:21.724Z,208
2018-03-31T05:01:21.737Z,220
2018-03-31T05:02:06.848Z,232
2018-03-31T05:03:07.113Z,248
2018-03-31T05:04:07.126Z,260
2018-03-31T05:05:07.152Z,272
2018-03-31T05:06:07.152Z,288
2018-03-31T05:07:06.909Z,300
2018-03-31T05:08:06.664Z,308
2018-03-31T05:09:06.939Z,316
2018-03-31T05:10:06.966Z,324
2018-03-31T05:11:06.979Z,332
2018-03-31T05:12:22.012Z,344
2018-03-31T05:13:07.257Z,344
2018-03-31T05:14:07.268Z,356
2018-03-31T05:16:07.303Z,372
2018-03-31T05:17:21.966Z,388
2018-03-31T05:18:07.065Z,404
2018-03-31T05:19:21.747Z,428
2018-03-31T05:20:06.575Z,444
2018-03-31T05:21:07.366Z,468
2018-03-31T05:22:07.123Z,492
2018-03-31T05:23:07.142Z,520
2018-03-31T05:24:07.151Z,548
2018-03-31T05:25:22.086Z,580
2018-03-31T05:26:07.489Z,600
2018-03-31T05:27:07.459Z,628
2018-03-31T05:28:07.472Z,648
2018-03-31T05:29:07.223Z,676
2018-03-31T05:30:21.955Z,700
2018-03-31T05:31:07.252Z,716
2018-03-31T05:32:07.532Z,736
2018-03-31T05:33:22.195Z,760
2018-03-31T05:34:07.553Z,776
2018-03-31T05:35:07.313Z,796
2018-03-31T05:36:07.693Z,812
2018-03-31T05:37:07.337Z,836
2018-03-31T05:38:07.619Z,864
2018-03-31T05:39:07.115Z,896
2018-03-31T05:40:07.394Z,932
2018-03-31T05:41:36.970Z,996
2018-03-31T05:42:07.158Z,1016
2018-03-31T05:43:22.083Z,1068
2018-03-31T05:44:07.446Z,1104
2018-03-31T05:45:07.714Z,1152
2018-03-31T05:46:07.472Z,1200
2018-03-31T05:47:22.401Z,1260
2018-03-31T05:48:07.238Z,1296
2018-03-31T05:49:07.785Z,1336
2018-03-31T05:50:07.266Z,1376
2018-03-31T05:51:07.799Z,1416
2018-03-31T05:52:07.560Z,1460
2018-03-31T05:53:07.931Z,1512
2018-03-31T05:54:07.891Z,1576
2018-03-31T05:55:07.869Z,1652
2018-03-31T05:56:07.877Z,1740
2018-03-31T05:57:22.330Z,1868
2018-03-31T05:58:07.904Z,1948
2018-03-31T05:59:07.919Z,2072
2018-03-31T06:00:07.416Z,2192
2018-03-31T06:01:07.702Z,2312
2018-03-31T06:02:22.621Z,2456
2018-03-31T06:03:07.994Z,2544
2018-03-31T06:04:07.734Z,2648
2018-03-31T06:05:07.490Z,2744
2018-03-31T06:06:07.760Z,2804
2018-03-31T06:07:22.433Z,2876
2018-03-31T06:08:22.449Z,2900
2018-03-31T06:09:07.950Z,2892
2018-03-31T06:10:07.861Z,2832
2018-03-31T06:11:22.496Z,2700
2018-03-31T06:13:37.438Z,2440
2018-03-31T06:14:22.536Z,2368
2018-03-31T06:15:07.667Z,2304
2018-03-31T06:16:07.908Z,2224
2018-03-31T06:17:07.924Z,2164
2018-03-31T06:18:07.683Z,2128
2018-03-31T06:19:07.952Z,2108
2018-03-31T06:20:22.884Z,2092
2018-03-31T06:21:08.059Z,2080
2018-03-31T06:22:07.999Z,2072
2018-03-31T06:23:08.015Z,2052
2018-03-31T06:24:07.768Z,2028
2018-03-31T06:25:08.045Z,1984
2018-03-31T06:26:08.056Z,1916
2018-03-31T06:29:07.844Z,1692
2018-03-31T06:30:08.378Z,1644
2018-03-31T06:31:07.872Z,1608
2018-03-31T06:32:08.150Z,1588
2018-03-31T06:33:08.168Z,1580
2018-03-31T06:34:08.179Z,1588
2018-03-31T06:35:08.194Z,1612
2018-03-31T06:36:08.209Z,1644
2018-03-31T06:37:08.482Z,1668
2018-03-31T06:38:22.893Z,1696
2018-03-31T06:40:08.268Z,1776
2018-03-31T06:41:08.289Z,1832
2018-03-31T06:42:08.562Z,1896
2018-03-31T06:43:08.583Z,2004
2018-03-31T06:44:08.588Z,2112
2018-03-31T06:45:08.342Z,2212
2018-03-31T06:46:08.630Z,2276
2018-03-31T06:47:08.632Z,2252
2018-03-31T06:48:08.696Z,2216
2018-03-31T06:49:08.406Z,2168
2018-03-31T06:50:08.680Z,2132
2018-03-31T06:51:08.692Z,2156
2018-03-31T06:52:23.364Z,2236
2018-03-31T06:53:08.741Z,2288
2018-03-31T06:54:23.141Z,2364
2018-03-31T06:55:08.752Z,2400
2018-03-31T06:56:08.529Z,2464
2018-03-31T06:57:08.522Z,2540
2018-03-31T06:58:23.215Z,2652
2018-03-31T06:59:08.813Z,2732
2018-03-31T07:00:23.484Z,2852
2018-03-31T07:01:08.061Z,2908
2018-03-31T07:02:08.854Z,2968
2018-03-31T07:03:08.350Z,2992
2018-03-31T07:04:08.369Z,2984
2018-03-31T07:05:08.122Z,2880
2018-03-31T07:06:08.920Z,2696
2018-03-31T07:07:08.932Z,2480
2018-03-31T07:08:08.424Z,2232
2018-03-31T07:09:08.445Z,1944
2018-03-31T07:10:08.983Z,1652
2018-03-31T07:11:08.992Z,1412
2018-03-31T07:12:09.021Z,1296
2018-03-31T07:13:08.502Z,1272
2018-03-31T07:14:08.516Z,1308
2018-03-31T07:15:08.540Z,1348
2018-03-31T07:16:23.727Z,1408
2018-03-31T07:17:08.821Z,1420
2018-03-31T07:18:09.095Z,1420
2018-03-31T07:19:08.860Z,1440
2018-03-31T07:20:08.869Z,1424
2018-03-31T07:21:08.883Z,1404
2018-03-31T07:22:08.638Z,1408
2018-03-31T07:23:08.394Z,1408
2018-03-31T07:24:08.927Z,1420
2018-03-31T07:25:08.681Z,1440
2018-03-31T07:26:23.616Z,1456
2018-03-31T07:27:09.238Z,1500
2018-03-31T07:28:08.732Z,1576
2018-03-31T07:29:23.686Z,1756
2018-03-31T07:30:09.285Z,1916
2018-03-31T07:31:09.034Z,2204
2018-03-31T07:32:23.967Z,2636
2018-03-31T07:33:09.378Z,2908
2018-03-31T07:34:09.353Z,3164
2018-03-31T07:35:09.097Z,3344
2018-03-31T07:36:09.117Z,3388
2018-03-31T07:37:09.128Z,3384
2018-03-31T07:39:24.071Z,3284
2018-03-31T07:40:09.166Z,3328
2018-03-31T07:41:09.191Z,3316
2018-03-31T07:43:23.871Z,3092
2018-03-31T07:44:09.229Z,2892
2018-03-31T07:45:24.163Z,2556
2018-03-31T07:46:09.137Z,2420
2018-03-31T07:47:09.548Z,2288
2018-03-31T07:48:38.865Z,2028
2018-03-31T07:49:09.576Z,1940
2018-03-31T07:50:09.323Z,1820
2018-03-31T07:51:09.078Z,1784
2018-03-31T07:52:09.749Z,1780
2018-03-31T07:53:09.370Z,1832
2018-03-31T07:55:09.658Z,1924
2018-03-31T07:56:09.671Z,1960
2018-03-31T07:57:09.429Z,2048
2018-03-31T07:58:09.186Z,2216
2018-03-31T07:59:09.717Z,2380
2018-03-31T08:00:09.486Z,2424
2018-03-31T08:02:09.775Z,2380
2018-03-31T08:03:39.093Z,2264
2018-03-31T08:04:09.535Z,2192
2018-03-31T08:05:09.858Z,2164
2018-03-31T08:07:09.846Z,2072
2018-03-31T08:08:09.598Z,1972
2018-03-31T08:09:09.890Z,1912
2018-03-31T08:10:10.008Z,1784
2018-03-31T08:11:24.559Z,1632
2018-03-31T08:12:09.659Z,1592
2018-03-31T08:13:09.676Z,1492
2018-03-31T08:14:09.696Z,1472
2018-03-31T08:15:24.366Z,1504
2018-03-31T08:16:10.015Z,1520
2018-03-31T08:17:24.649Z,1500
2018-03-31T08:18:09.757Z,1456
2018-03-31T08:19:09.764Z,1532
2018-03-31T08:20:09.797Z,1564
2018-03-31T08:21:10.057Z,1628
2018-03-31T08:22:09.555Z,1732
2018-03-31T08:23:10.089Z,1756
2018-03-31T08:24:09.895Z,1952
2018-03-31T08:25:24.878Z,2124
2018-03-31T08:26:09.612Z,2360
2018-03-31T08:27:10.155Z,2420
2018-03-31T08:28:09.904Z,2772
2018-03-31T08:29:24.845Z,3376
2018-03-31T08:30:24.942Z,3568
2018-03-31T08:31:09.946Z,3896
2018-03-31T08:32:09.701Z,3896
2018-03-31T08:33:09.974Z,3892
2018-03-31T08:34:09.989Z,3568
2018-03-31T08:35:24.926Z,3376
2018-03-31T08:36:10.282Z,3280
2018-03-31T08:37:10.039Z,3060
2018-03-31T08:38:10.314Z,2996
2018-03-31T08:39:10.068Z,3000
2018-03-31T08:40:24.741Z,3024
2018-03-31T08:41:10.199Z,2996
2018-03-31T08:42:10.126Z,2932
2018-03-31T08:43:09.869Z,2928
2018-03-31T08:45:09.898Z,3028
2018-03-31T08:46:10.174Z,3024
2018-03-31T08:48:10.206Z,2940
2018-03-31T08:49:10.482Z,3060
2018-03-31T08:50:10.492Z,3132
2018-03-31T08:51:25.171Z,3112
2018-03-31T08:53:10.542Z,3084
2018-03-31T08:54:10.555Z,2832
2018-03-31T08:55:10.312Z,2916
2018-03-31T08:56:10.588Z,2896
2018-03-31T08:57:25.260Z,2836
2018-03-31T08:58:25.018Z,2896
2018-03-31T08:59:10.376Z,2956
2018-03-31T09:00:10.654Z,3076
2018-03-31T09:02:10.682Z,3056
2018-03-31T09:03:10.701Z,3140
2018-03-31T09:04:10.449Z,3128
2018-03-31T09:05:10.465Z,2944
2018-03-31T09:06:10.743Z,2752
2018-03-31T09:07:25.155Z,2428
2018-03-31T09:08:10.871Z,2424
2018-03-31T09:09:10.902Z,2348
2018-03-31T09:10:10.293Z,2264
2018-03-31T09:11:10.300Z,2292
2018-03-31T09:12:10.579Z,2372
2018-03-31T09:13:10.626Z,2404
2018-03-31T09:14:25.572Z,2464
2018-03-31T09:15:10.623Z,2648
2018-03-31T09:16:10.653Z,2688
2018-03-31T09:17:10.919Z,2796
2018-03-31T09:18:10.673Z,3152
2018-03-31T09:19:10.703Z,3200
2018-03-31T09:20:10.698Z,3032
2018-03-31T09:21:10.783Z,3168
2018-03-31T09:22:10.993Z,3200
2018-03-31T09:23:40.318Z,2964
2018-03-31T09:24:10.765Z,2820
2018-03-31T09:25:10.517Z,2664
2018-03-31T09:26:25.447Z,2448
2018-03-31T09:27:10.546Z,2320
2018-03-31T09:28:11.137Z,2348
2018-03-31T09:29:11.094Z,2468
2018-03-31T09:30:10.616Z,2572
2018-03-31T09:31:10.868Z,2584
2018-03-31T09:32:10.881Z,2508
2018-03-31T09:34:10.913Z,2284
2018-03-31T09:35:10.937Z,2188
2018-03-31T09:36:10.944Z,2172
2018-03-31T09:38:25.890Z,2276
2018-03-31T09:39:10.992Z,2264
2018-03-31T09:40:11.274Z,2344
2018-03-31T09:41:11.297Z,2392
2018-03-31T09:42:25.441Z,2556
2018-03-31T09:43:11.314Z,2644
2018-03-31T09:44:11.326Z,2808
2018-03-31T09:45:11.090Z,2880
2018-03-31T09:46:11.357Z,3084
2018-03-31T09:47:10.854Z,3212
2018-03-31T09:48:11.127Z,3384
2018-03-31T09:49:11.410Z,3556
2018-03-31T09:50:11.421Z,3764
2018-03-31T09:51:11.177Z,4056
2018-03-31T09:52:11.450Z,4292
2018-03-31T09:53:11.467Z,4488
2018-03-31T09:54:11.488Z,4464
2018-03-31T09:55:11.252Z,4296
2018-03-31T09:56:25.909Z,4292
2018-03-31T09:57:11.284Z,4212
2018-03-31T09:58:11.284Z,4124
2018-03-31T09:59:11.309Z,3848
2018-03-31T10:00:11.319Z,3616
2018-03-31T10:01:26.245Z,3600
2018-03-31T10:02:11.344Z,3708
2018-03-31T10:03:11.620Z,3856
2018-03-31T10:04:26.034Z,3928
2018-03-31T10:05:11.652Z,3920
2018-03-31T10:06:11.405Z,3888
2018-03-31T10:07:11.420Z,3856
2018-03-31T10:08:11.697Z,3832
2018-03-31T10:10:26.383Z,3816
2018-03-31T10:11:11.749Z,3924
2018-03-31T10:12:26.221Z,4016
2018-03-31T10:13:11.772Z,4068
2018-03-31T10:14:11.792Z,4132
2018-03-31T10:15:12.061Z,4256
2018-03-31T10:16:11.561Z,4312
2018-03-31T10:17:26.492Z,4424
2018-03-31T10:18:11.849Z,4576
2018-03-31T10:19:11.347Z,4684
2018-03-31T10:20:11.883Z,4792
2018-03-31T10:21:11.907Z,4876
2018-03-31T10:22:26.572Z,5036
2018-03-31T10:23:11.412Z,5180
2018-03-31T10:24:11.949Z,5384
2018-03-31T10:26:26.381Z,5660
2018-03-31T10:27:26.388Z,5676
2018-03-31T10:28:11.752Z,5824
2018-03-31T10:29:12.080Z,5892
2018-03-31T10:30:12.041Z,5860
2018-03-31T10:31:12.062Z,5572
2018-03-31T10:32:12.067Z,5356
2018-03-31T10:33:26.740Z,5504
2018-03-31T10:34:11.840Z,5472
2018-03-31T10:35:11.899Z,5080
2018-03-31T10:36:12.132Z,4688
2018-03-31T10:37:12.153Z,4444
2018-03-31T10:38:26.823Z,3844
2018-03-31T10:39:12.230Z,3504
2018-03-31T10:40:11.938Z,3244
2018-03-31T10:41:12.217Z,3020
2018-03-31T10:42:41.554Z,2780
2018-03-31T10:43:12.256Z,2712
2018-03-31T10:44:12.260Z,2576
2018-03-31T10:45:12.273Z,2368
2018-03-31T10:46:12.288Z,2208
2018-03-31T10:47:12.312Z,2080
2018-03-31T10:48:12.059Z,2016
2018-03-31T10:49:12.135Z,2032
2018-03-31T10:50:12.094Z,2092
2018-03-31T10:51:12.369Z,2196
2018-03-31T10:52:12.402Z,2200
2018-03-31T10:53:12.412Z,2176
2018-03-31T10:54:12.155Z,2088
2018-03-31T10:55:12.430Z,2004
2018-03-31T10:56:12.188Z,2016
2018-03-31T10:57:12.462Z,2032
2018-03-31T10:58:41.791Z,2064
2018-03-31T10:59:26.890Z,2116
2018-03-31T11:00:12.251Z,2196
2018-03-31T11:02:12.545Z,2468
2018-03-31T11:03:12.309Z,2560
2018-03-31T11:04:12.569Z,2600
2018-03-31T11:05:27.247Z,2588
2018-03-31T11:06:12.347Z,2620
2018-03-31T11:07:27.281Z,2600
2018-03-31T11:08:12.634Z,2568
2018-03-31T11:09:12.699Z,2512
2018-03-31T11:10:12.405Z,2624
2018-03-31T11:11:12.692Z,2800
2018-03-31T11:13:27.121Z,3016
2018-03-31T11:15:27.143Z,3116
2018-03-31T11:16:12.513Z,3160
2018-03-31T11:17:12.530Z,3224
2018-03-31T11:18:12.828Z,3228
2018-03-31T11:19:12.550Z,3352
2018-03-31T11:20:12.305Z,3384
2018-03-31T11:21:12.854Z,3260
2018-03-31T11:22:12.596Z,3172
2018-03-31T11:23:27.012Z,2828
2018-03-31T11:24:12.891Z,2652
2018-03-31T11:25:12.645Z,2436
2018-03-31T11:26:12.926Z,2252
2018-03-31T11:27:12.677Z,2256
2018-03-31T11:29:12.969Z,2288
2018-03-31T11:30:12.466Z,2336
2018-03-31T11:31:13.000Z,2340
2018-03-31T11:32:12.765Z,2324
2018-03-31T11:33:13.046Z,2320
2018-03-31T11:34:13.048Z,2312
2018-03-31T11:35:13.069Z,2092
2018-03-31T11:36:12.830Z,1924
2018-03-31T11:37:27.753Z,1824
2018-03-31T11:38:13.115Z,1776
2018-03-31T11:39:12.871Z,1780
2018-03-31T11:40:12.628Z,1840
2018-03-31T11:41:12.903Z,1816
2018-03-31T11:42:12.920Z,1848
2018-03-31T11:43:12.934Z,1720
2018-03-31T11:44:12.955Z,1632
2018-03-31T11:45:27.881Z,1576
2018-03-31T11:46:12.992Z,1556
2018-03-31T11:47:13.309Z,1588
2018-03-31T11:48:12.756Z,1656
2018-03-31T11:49:12.770Z,1664
2018-03-31T11:52:13.078Z,1972
2018-03-31T11:53:13.353Z,1972
2018-03-31T11:54:12.852Z,2016
2018-03-31T11:55:12.867Z,2028
2018-03-31T11:56:13.143Z,1972
2018-03-31T11:57:13.420Z,1892
2018-03-31T11:58:27.841Z,1812
2018-03-31T11:59:13.193Z,1740
2018-03-31T12:00:13.467Z,1680
2018-03-31T12:01:42.800Z,1756
2018-03-31T12:02:12.982Z,1776
2018-03-31T12:03:27.915Z,1832
2018-03-31T12:04:13.532Z,1892
2018-03-31T12:05:13.554Z,1972
2018-03-31T12:06:13.579Z,2028
2018-03-31T12:07:13.324Z,2060
2018-03-31T12:08:28.255Z,2120
2018-03-31T12:09:28.272Z,2184
2018-03-31T12:10:13.631Z,2184
2018-03-31T12:11:13.645Z,2176
2018-03-31T12:12:13.661Z,2192
2018-03-31T12:13:13.421Z,2220
2018-03-31T12:14:13.697Z,2252
2018-03-31T12:15:28.369Z,2344
2018-03-31T12:16:13.740Z,2408
2018-03-31T12:17:43.060Z,2612
2018-03-31T12:18:13.761Z,2680
2018-03-31T12:19:13.779Z,2784
2018-03-31T12:20:13.798Z,2816
2018-03-31T12:21:13.810Z,2784
2018-03-31T12:22:13.831Z,2760
2018-03-31T12:23:13.584Z,2744
2018-03-31T12:24:13.867Z,2684
2018-03-31T12:25:13.881Z,2616
2018-03-31T12:26:13.635Z,2604
2018-03-31T12:27:14.010Z,2664
2018-03-31T12:28:13.929Z,2812
2018-03-31T12:29:13.946Z,2984
2018-03-31T12:30:13.440Z,3104
2018-03-31T12:31:28.634Z,3184
2018-03-31T12:32:13.733Z,3188
2018-03-31T12:33:28.665Z,3084
2018-03-31T12:34:14.035Z,2944
2018-03-31T12:35:14.055Z,2708
2018-03-31T12:36:14.067Z,2492
2018-03-31T12:37:13.560Z,2336
2018-03-31T12:38:14.092Z,2228
2018-03-31T12:39:14.109Z,2176
2018-03-31T12:40:28.784Z,2180
2018-03-31T12:41:13.883Z,2204
2018-03-31T12:42:14.160Z,2272
2018-03-31T12:43:14.186Z,2360
2018-03-31T12:44:14.196Z,2484
2018-03-31T12:45:13.950Z,2636
2018-03-31T12:46:14.236Z,2780
2018-03-31T12:47:28.901Z,2828
2018-03-31T12:48:43.587Z,2748
2018-03-31T12:49:14.281Z,2692
2018-03-31T12:50:28.693Z,2636
2018-03-31T12:51:14.311Z,2684
2018-03-31T12:52:14.487Z,2696
2018-03-31T12:53:14.346Z,2608
2018-03-31T12:54:14.461Z,2512
2018-03-31T12:55:14.125Z,2440
2018-03-31T12:56:14.407Z,2420
2018-03-31T12:57:14.160Z,2416
2018-03-31T12:58:29.101Z,2404
2018-03-31T12:59:14.192Z,2388
2018-03-31T13:01:14.477Z,2412
2018-03-31T13:02:14.495Z,2504
2018-03-31T13:04:14.528Z,2560
2018-03-31T13:05:14.544Z,2488
2018-03-31T13:06:14.569Z,2416
2018-03-31T13:07:14.326Z,2368
2018-03-31T13:09:14.620Z,2232
2018-03-31T13:10:14.706Z,2136
2018-03-31T13:11:29.310Z,2056
2018-03-31T13:12:29.327Z,1996
2018-03-31T13:13:14.681Z,1944
2018-03-31T13:14:14.700Z,1864
2018-03-31T13:15:14.456Z,1788
2018-03-31T13:16:14.838Z,1712
2018-03-31T13:17:29.408Z,1632
2018-03-31T13:18:14.824Z,1580
2018-03-31T13:19:14.797Z,1504
2018-03-31T13:20:44.116Z,1404
2018-03-31T13:21:14.872Z,1372
2018-03-31T13:22:14.834Z,1324
2018-03-31T13:23:14.849Z,1276
2018-03-31T13:24:29.529Z,1244
2018-03-31T13:25:14.886Z,1236
2018-03-31T13:26:14.901Z,1232
2018-03-31T13:27:14.926Z,1216
2018-03-31T13:28:14.937Z,1200
2018-03-31T13:30:14.976Z,1172
2018-03-31T13:31:14.728Z,1148
2018-03-31T13:32:15.004Z,1132
2018-03-31T13:33:15.021Z,1116
2018-03-31T13:34:14.779Z,1108
2018-03-31T13:35:14.535Z,1116
2018-03-31T13:36:29.470Z,1136
2018-03-31T13:37:14.829Z,1140
2018-03-31T13:38:15.112Z,1120
2018-03-31T13:39:15.123Z,1116
2018-03-31T13:40:15.160Z,1120
2018-03-31T13:41:14.638Z,1124
2018-03-31T13:42:15.194Z,1096
2018-03-31T13:43:29.847Z,1048
2018-03-31T13:44:14.953Z,1032
2018-03-31T13:45:15.225Z,1036
2018-03-31T13:46:29.641Z,1060
2018-03-31T13:47:15.258Z,1084
2018-03-31T13:48:15.017Z,1136
2018-03-31T13:49:15.297Z,1200
2018-03-31T13:50:15.308Z,1280
2018-03-31T13:51:15.325Z,1344
2018-03-31T13:52:30.033Z,1408
2018-03-31T13:53:15.366Z,1428
2018-03-31T13:54:15.137Z,1440
2018-03-31T13:55:30.056Z,1420
2018-03-31T13:56:15.414Z,1396
2018-03-31T13:57:15.180Z,1352
2018-03-31T13:58:15.448Z,1300
2018-03-31T13:59:30.124Z,1264
2018-03-31T14:00:15.218Z,1256
2018-03-31T14:01:30.158Z,1240
2018-03-31T14:02:30.174Z,1228
2018-03-31T14:03:29.667Z,1232
2018-03-31T14:04:15.570Z,1228
2018-03-31T14:06:30.238Z,1156
2018-03-31T14:07:15.337Z,1100
2018-03-31T14:08:30.278Z,1044
2018-03-31T14:09:15.370Z,1052
2018-03-31T14:10:15.673Z,1108
2018-03-31T14:11:15.411Z,1176
2018-03-31T14:12:15.422Z,1232
2018-03-31T14:13:15.705Z,1256
2018-03-31T14:14:15.456Z,1244
2018-03-31T14:15:15.227Z,1208
2018-03-31T14:16:15.236Z,1192
2018-03-31T14:17:15.774Z,1208
2018-03-31T14:18:15.531Z,1236
2018-03-31T14:19:15.810Z,1244
2018-03-31T14:20:15.818Z,1260
2018-03-31T14:21:15.843Z,1260
2018-03-31T14:22:30.512Z,1208
2018-03-31T14:23:45.204Z,1152
2018-03-31T14:24:15.371Z,1132
2018-03-31T14:25:15.911Z,1124
2018-03-31T14:26:15.922Z,1164
2018-03-31T14:27:15.936Z,1260